sensor_id;sensor_type;location;lat;lon;timestamp;temperature;humidity
16823;DHT22;8528;49.976;11.858;2023-12-20T00:02:14;3.20;99.90
16823;DHT22;8528;49.976;11.858;2023-12-20T00:04:41;3.20;99.90
16823;DHT22;8528;49.976;11.858;2023-12-20T00:07:09;3.20;99.90
16823;DHT22;8528;49.976;11.858;2023-12-20T00:09:36;3.20;99.90
16823;DHT22;8528;49.976;11.858;2023-12-20T00:12:03;3.20;99.90
16823;DHT22;8528;49.976;11.858;2023-12-20T00:14:30;3.20;99.90
16823;DHT22;8528;49.976;11.858;2023-12-20T00:16:57;3.20;99.90
16823;DHT22;8528;49.976;11.858;2023-12-20T00:19:23;3.20;99.90
16823;DHT22;8528;49.976;11.858;2023-12-20T00:21:51;3.10;99.90
16823;DHT22;8528;49.976;11.858;2023-12-20T00:24:17;3.20;99.90
16823;DHT22;8528;49.976;11.858;2023-12-20T00:26:44;3.10;99.90
16823;DHT22;8528;49.976;11.858;2023-12-20T00:29:11;3.10;99.90
16823;DHT22;8528;49.976;11.858;2023-12-20T00:31:38;3.10;99.90
16823;DHT22;8528;49.976;11.858;2023-12-20T00:34:05;3.10;99.90
16823;DHT22;8528;49.976;11.858;2023-12-20T00:36:32;3.20;99.90
16823;DHT22;8528;49.976;11.858;2023-12-20T00:38:59;3.20;99.90
16823;DHT22;8528;49.976;11.858;2023-12-20T00:41:26;3.20;99.90
16823;DHT22;8528;49.976;11.858;2023-12-20T00:43:52;3.30;99.90
16823;DHT22;8528;49.976;11.858;2023-12-20T00:46:19;3.30;99.90
16823;DHT22;8528;49.976;11.858;2023-12-20T00:48:46;3.20;99.90
16823;DHT22;8528;49.976;11.858;2023-12-20T00:51:13;3.20;99.90
16823;DHT22;8528;49.976;11.858;2023-12-20T00:53:39;3.20;99.90
16823;DHT22;8528;49.976;11.858;2023-12-20T00:56:06;3.20;99.90
16823;DHT22;8528;49.976;11.858;2023-12-20T00:58:33;3.20;99.90
16823;DHT22;8528;49.976;11.858;2023-12-20T01:01:00;3.20;99.90
16823;DHT22;8528;49.976;11.858;2023-12-20T01:03:27;3.20;99.90
16823;DHT22;8528;49.976;11.858;2023-12-20T01:05:54;3.10;99.90
16823;DHT22;8528;49.976;11.858;2023-12-20T01:08:21;3.10;99.90
16823;DHT22;8528;49.976;11.858;2023-12-20T01:10:48;3.20;99.90
16823;DHT22;8528;49.976;11.858;2023-12-20T01:13:15;3.10;99.90
16823;DHT22;8528;49.976;11.858;2023-12-20T01:15:42;3.10;99.90
16823;DHT22;8528;49.976;11.858;2023-12-20T01:18:09;3.10;99.90
16823;DHT22;8528;49.976;11.858;2023-12-20T01:20:36;3.10;99.90
16823;DHT22;8528;49.976;11.858;2023-12-20T01:23:03;3.10;99.90
16823;DHT22;8528;49.976;11.858;2023-12-20T01:25:30;3.10;99.90
16823;DHT22;8528;49.976;11.858;2023-12-20T01:27:57;3.10;99.90
16823;DHT22;8528;49.976;11.858;2023-12-20T01:30:24;3.10;99.90
16823;DHT22;8528;49.976;11.858;2023-12-20T01:32:51;3.10;99.90
16823;DHT22;8528;49.976;11.858;2023-12-20T01:35:18;3.00;99.90
16823;DHT22;8528;49.976;11.858;2023-12-20T01:37:47;3.00;99.90
16823;DHT22;8528;49.976;11.858;2023-12-20T01:40:14;3.00;99.90
16823;DHT22;8528;49.976;11.858;2023-12-20T01:42:41;3.00;99.90
16823;DHT22;8528;49.976;11.858;2023-12-20T01:45:08;3.00;99.90
16823;DHT22;8528;49.976;11.858;2023-12-20T01:47:36;3.00;99.90
16823;DHT22;8528;49.976;11.858;2023-12-20T01:50:04;3.00;99.90
16823;DHT22;8528;49.976;11.858;2023-12-20T01:52:32;3.00;99.90
16823;DHT22;8528;49.976;11.858;2023-12-20T01:55:01;3.00;99.90
16823;DHT22;8528;49.976;11.858;2023-12-20T01:57:30;3.00;99.90
16823;DHT22;8528;49.976;11.858;2023-12-20T01:59:57;3.10;99.90
16823;DHT22;8528;49.976;11.858;2023-12-20T02:02:26;3.00;99.90
16823;DHT22;8528;49.976;11.858;2023-12-20T02:04:54;3.00;99.90
16823;DHT22;8528;49.976;11.858;2023-12-20T02:07:22;3.00;99.90
16823;DHT22;8528;49.976;11.858;2023-12-20T02:09:50;3.00;99.90
16823;DHT22;8528;49.976;11.858;2023-12-20T02:12:17;3.00;99.90
16823;DHT22;8528;49.976;11.858;2023-12-20T02:14:44;3.00;99.90
16823;DHT22;8528;49.976;11.858;2023-12-20T02:17:11;3.00;99.90
16823;DHT22;8528;49.976;11.858;2023-12-20T02:19:39;3.00;99.90
16823;DHT22;8528;49.976;11.858;2023-12-20T02:22:15;3.00;99.90
16823;DHT22;8528;49.976;11.858;2023-12-20T02:24:42;3.00;99.90
16823;DHT22;8528;49.976;11.858;2023-12-20T02:27:09;3.00;99.90
16823;DHT22;8528;49.976;11.858;2023-12-20T02:29:36;3.00;99.90
16823;DHT22;8528;49.976;11.858;2023-12-20T02:32:03;3.00;99.90
16823;DHT22;8528;49.976;11.858;2023-12-20T02:34:30;3.10;99.90
16823;DHT22;8528;49.976;11.858;2023-12-20T02:36:57;3.00;99.90
16823;DHT22;8528;49.976;11.858;2023-12-20T02:39:23;3.00;99.90
16823;DHT22;8528;49.976;11.858;2023-12-20T02:41:50;3.00;99.90
16823;DHT22;8528;49.976;11.858;2023-12-20T02:44:17;3.00;99.90
16823;DHT22;8528;49.976;11.858;2023-12-20T02:46:44;3.00;99.90
16823;DHT22;8528;49.976;11.858;2023-12-20T02:49:11;3.00;99.90
16823;DHT22;8528;49.976;11.858;2023-12-20T02:51:38;3.00;99.90
16823;DHT22;8528;49.976;11.858;2023-12-20T02:54:05;3.00;99.90
16823;DHT22;8528;49.976;11.858;2023-12-20T02:56:33;3.00;99.90
16823;DHT22;8528;49.976;11.858;2023-12-20T02:59:00;3.00;99.90
16823;DHT22;8528;49.976;11.858;2023-12-20T03:01:29;2.90;99.90
16823;DHT22;8528;49.976;11.858;2023-12-20T03:03:56;2.90;99.90
16823;DHT22;8528;49.976;11.858;2023-12-20T03:06:24;2.90;99.90
16823;DHT22;8528;49.976;11.858;2023-12-20T03:08:52;2.90;99.90
16823;DHT22;8528;49.976;11.858;2023-12-20T03:11:19;2.90;99.90
16823;DHT22;8528;49.976;11.858;2023-12-20T03:13:46;2.90;99.90
16823;DHT22;8528;49.976;11.858;2023-12-20T03:16:13;2.80;99.90
16823;DHT22;8528;49.976;11.858;2023-12-20T03:18:40;2.80;99.90
16823;DHT22;8528;49.976;11.858;2023-12-20T03:21:07;2.70;99.90
16823;DHT22;8528;49.976;11.858;2023-12-20T03:23:34;2.70;99.90
16823;DHT22;8528;49.976;11.858;2023-12-20T03:26:01;2.70;99.90
16823;DHT22;8528;49.976;11.858;2023-12-20T03:28:29;2.70;99.90
16823;DHT22;8528;49.976;11.858;2023-12-20T03:30:56;2.70;99.90
16823;DHT22;8528;49.976;11.858;2023-12-20T03:33:23;2.70;99.90
16823;DHT22;8528;49.976;11.858;2023-12-20T03:35:50;2.70;99.90
16823;DHT22;8528;49.976;11.858;2023-12-20T03:38:17;2.70;99.90
16823;DHT22;8528;49.976;11.858;2023-12-20T03:40:44;2.70;99.90
16823;DHT22;8528;49.976;11.858;2023-12-20T03:43:11;2.70;99.90
16823;DHT22;8528;49.976;11.858;2023-12-20T03:45:38;2.70;99.90
16823;DHT22;8528;49.976;11.858;2023-12-20T03:48:05;2.70;99.90
16823;DHT22;8528;49.976;11.858;2023-12-20T03:50:33;2.70;99.90
16823;DHT22;8528;49.976;11.858;2023-12-20T03:53:00;2.70;99.90
16823;DHT22;8528;49.976;11.858;2023-12-20T03:55:27;2.60;99.90
16823;DHT22;8528;49.976;11.858;2023-12-20T03:57:54;2.60;99.90
16823;DHT22;8528;49.976;11.858;2023-12-20T04:00:21;2.70;99.90
16823;DHT22;8528;49.976;11.858;2023-12-20T04:02:48;2.70;99.90
16823;DHT22;8528;49.976;11.858;2023-12-20T04:05:15;2.70;99.90
16823;DHT22;8528;49.976;11.858;2023-12-20T04:07:42;2.70;99.90
16823;DHT22;8528;49.976;11.858;2023-12-20T04:10:09;2.70;99.90
16823;DHT22;8528;49.976;11.858;2023-12-20T04:12:37;2.70;99.90
16823;DHT22;8528;49.976;11.858;2023-12-20T04:15:04;2.70;99.90
16823;DHT22;8528;49.976;11.858;2023-12-20T04:17:36;2.70;99.90
16823;DHT22;8528;49.976;11.858;2023-12-20T04:20:03;2.70;99.90
16823;DHT22;8528;49.976;11.858;2023-12-20T04:22:31;2.70;99.90
16823;DHT22;8528;49.976;11.858;2023-12-20T04:24:58;2.70;99.90
16823;DHT22;8528;49.976;11.858;2023-12-20T04:27:25;2.70;99.90
16823;DHT22;8528;49.976;11.858;2023-12-20T04:29:52;2.70;99.90
16823;DHT22;8528;49.976;11.858;2023-12-20T04:32:18;2.70;99.90
16823;DHT22;8528;49.976;11.858;2023-12-20T04:34:45;2.70;99.90
16823;DHT22;8528;49.976;11.858;2023-12-20T04:37:12;2.70;99.90
16823;DHT22;8528;49.976;11.858;2023-12-20T04:39:39;2.60;99.90
16823;DHT22;8528;49.976;11.858;2023-12-20T04:42:08;2.70;99.90
16823;DHT22;8528;49.976;11.858;2023-12-20T04:44:35;2.60;99.90
16823;DHT22;8528;49.976;11.858;2023-12-20T04:47:02;2.60;99.90
16823;DHT22;8528;49.976;11.858;2023-12-20T04:49:29;2.60;99.90
16823;DHT22;8528;49.976;11.858;2023-12-20T04:51:56;2.70;99.90
16823;DHT22;8528;49.976;11.858;2023-12-20T04:54:23;2.70;99.90
16823;DHT22;8528;49.976;11.858;2023-12-20T04:56:50;2.60;99.90
16823;DHT22;8528;49.976;11.858;2023-12-20T04:59:17;2.60;99.90
16823;DHT22;8528;49.976;11.858;2023-12-20T05:01:44;2.60;99.90
16823;DHT22;8528;49.976;11.858;2023-12-20T05:04:11;2.70;99.90
16823;DHT22;8528;49.976;11.858;2023-12-20T05:06:38;2.60;99.90
16823;DHT22;8528;49.976;11.858;2023-12-20T05:09:05;2.70;99.90
16823;DHT22;8528;49.976;11.858;2023-12-20T05:11:32;2.60;99.90
16823;DHT22;8528;49.976;11.858;2023-12-20T05:13:59;2.60;99.90
16823;DHT22;8528;49.976;11.858;2023-12-20T05:16:26;2.60;99.90
16823;DHT22;8528;49.976;11.858;2023-12-20T05:18:53;2.60;99.90
16823;DHT22;8528;49.976;11.858;2023-12-20T05:21:20;2.50;99.90
16823;DHT22;8528;49.976;11.858;2023-12-20T05:23:47;2.50;99.90
16823;DHT22;8528;49.976;11.858;2023-12-20T05:26:14;2.50;99.90
16823;DHT22;8528;49.976;11.858;2023-12-20T05:28:41;2.50;99.90
16823;DHT22;8528;49.976;11.858;2023-12-20T05:31:08;2.50;99.90
16823;DHT22;8528;49.976;11.858;2023-12-20T05:33:35;2.50;99.90
16823;DHT22;8528;49.976;11.858;2023-12-20T05:36:02;2.50;99.90
16823;DHT22;8528;49.976;11.858;2023-12-20T05:38:30;2.50;99.90
16823;DHT22;8528;49.976;11.858;2023-12-20T05:40:57;2.50;99.90
16823;DHT22;8528;49.976;11.858;2023-12-20T05:43:23;2.50;99.90
16823;DHT22;8528;49.976;11.858;2023-12-20T05:45:51;2.60;99.90
16823;DHT22;8528;49.976;11.858;2023-12-20T05:48:17;2.60;99.90
16823;DHT22;8528;49.976;11.858;2023-12-20T05:50:44;2.60;99.90
16823;DHT22;8528;49.976;11.858;2023-12-20T05:53:11;2.60;99.90
16823;DHT22;8528;49.976;11.858;2023-12-20T05:55:38;2.60;99.90
16823;DHT22;8528;49.976;11.858;2023-12-20T05:58:05;2.60;99.90
16823;DHT22;8528;49.976;11.858;2023-12-20T06:00:32;2.60;99.90
16823;DHT22;8528;49.976;11.858;2023-12-20T06:02:59;2.60;99.90
16823;DHT22;8528;49.976;11.858;2023-12-20T06:05:26;2.60;99.90
16823;DHT22;8528;49.976;11.858;2023-12-20T06:07:53;2.60;99.90
16823;DHT22;8528;49.976;11.858;2023-12-20T06:10:21;2.60;99.90
16823;DHT22;8528;49.976;11.858;2023-12-20T06:12:48;2.60;99.90
16823;DHT22;8528;49.976;11.858;2023-12-20T06:15:17;2.60;99.90
16823;DHT22;8528;49.976;11.858;2023-12-20T06:17:43;2.60;99.90
16823;DHT22;8528;49.976;11.858;2023-12-20T06:20:11;2.60;99.90
16823;DHT22;8528;49.976;11.858;2023-12-20T06:22:38;2.60;99.90
16823;DHT22;8528;49.976;11.858;2023-12-20T06:25:05;2.70;99.90
16823;DHT22;8528;49.976;11.858;2023-12-20T06:27:33;2.60;99.90
16823;DHT22;8528;49.976;11.858;2023-12-20T06:30:00;2.60;99.90
16823;DHT22;8528;49.976;11.858;2023-12-20T06:32:27;2.60;99.90
16823;DHT22;8528;49.976;11.858;2023-12-20T06:34:55;2.60;99.90
16823;DHT22;8528;49.976;11.858;2023-12-20T06:37:23;2.60;99.90
16823;DHT22;8528;49.976;11.858;2023-12-20T06:39:50;2.70;99.90
16823;DHT22;8528;49.976;11.858;2023-12-20T06:42:17;2.70;99.90
16823;DHT22;8528;49.976;11.858;2023-12-20T06:44:43;2.60;99.90
16823;DHT22;8528;49.976;11.858;2023-12-20T06:47:10;2.70;99.90
16823;DHT22;8528;49.976;11.858;2023-12-20T06:49:38;2.70;99.90
16823;DHT22;8528;49.976;11.858;2023-12-20T06:52:05;2.70;99.90
16823;DHT22;8528;49.976;11.858;2023-12-20T06:54:33;2.70;99.90
16823;DHT22;8528;49.976;11.858;2023-12-20T06:57:01;2.70;99.90
16823;DHT22;8528;49.976;11.858;2023-12-20T06:59:29;2.70;99.90
16823;DHT22;8528;49.976;11.858;2023-12-20T07:01:56;2.70;99.90
16823;DHT22;8528;49.976;11.858;2023-12-20T07:04:24;2.70;99.90
16823;DHT22;8528;49.976;11.858;2023-12-20T07:06:51;2.70;99.90
16823;DHT22;8528;49.976;11.858;2023-12-20T07:09:21;2.70;99.90
16823;DHT22;8528;49.976;11.858;2023-12-20T07:11:48;2.70;99.90
16823;DHT22;8528;49.976;11.858;2023-12-20T07:14:15;2.70;99.90
16823;DHT22;8528;49.976;11.858;2023-12-20T07:16:42;2.70;99.90
16823;DHT22;8528;49.976;11.858;2023-12-20T07:19:10;2.80;99.90
16823;DHT22;8528;49.976;11.858;2023-12-20T07:21:37;2.80;99.90
16823;DHT22;8528;49.976;11.858;2023-12-20T07:24:04;2.80;99.90
16823;DHT22;8528;49.976;11.858;2023-12-20T07:26:31;2.80;99.90
16823;DHT22;8528;49.976;11.858;2023-12-20T07:28:58;2.80;99.90
16823;DHT22;8528;49.976;11.858;2023-12-20T07:31:25;2.80;99.90
16823;DHT22;8528;49.976;11.858;2023-12-20T07:33:52;2.80;99.90
16823;DHT22;8528;49.976;11.858;2023-12-20T07:36:19;2.80;99.90
16823;DHT22;8528;49.976;11.858;2023-12-20T07:38:48;2.80;99.90
16823;DHT22;8528;49.976;11.858;2023-12-20T07:41:15;2.80;99.90
16823;DHT22;8528;49.976;11.858;2023-12-20T07:43:47;2.90;99.90
16823;DHT22;8528;49.976;11.858;2023-12-20T07:46:14;2.90;99.90
16823;DHT22;8528;49.976;11.858;2023-12-20T07:48:41;2.90;99.90
16823;DHT22;8528;49.976;11.858;2023-12-20T07:51:11;2.90;99.90
16823;DHT22;8528;49.976;11.858;2023-12-20T07:53:38;2.90;99.90
16823;DHT22;8528;49.976;11.858;2023-12-20T07:56:23;2.90;99.90
16823;DHT22;8528;49.976;11.858;2023-12-20T07:58:50;2.90;99.90
16823;DHT22;8528;49.976;11.858;2023-12-20T08:01:20;2.90;99.90
16823;DHT22;8528;49.976;11.858;2023-12-20T08:03:49;3.00;99.90
16823;DHT22;8528;49.976;11.858;2023-12-20T08:06:17;2.90;99.90
16823;DHT22;8528;49.976;11.858;2023-12-20T08:08:44;2.90;99.90
16823;DHT22;8528;49.976;11.858;2023-12-20T08:11:18;3.00;99.90
16823;DHT22;8528;49.976;11.858;2023-12-20T08:13:46;3.00;99.90
16823;DHT22;8528;49.976;11.858;2023-12-20T08:16:13;3.10;99.90
16823;DHT22;8528;49.976;11.858;2023-12-20T08:18:43;3.10;99.90
16823;DHT22;8528;49.976;11.858;2023-12-20T08:21:10;3.10;99.90
16823;DHT22;8528;49.976;11.858;2023-12-20T08:23:38;3.10;99.90
16823;DHT22;8528;49.976;11.858;2023-12-20T08:26:06;3.10;99.90
16823;DHT22;8528;49.976;11.858;2023-12-20T08:28:34;3.10;99.90
16823;DHT22;8528;49.976;11.858;2023-12-20T08:31:01;3.10;99.90
16823;DHT22;8528;49.976;11.858;2023-12-20T08:33:28;3.20;99.90
16823;DHT22;8528;49.976;11.858;2023-12-20T08:35:55;3.20;99.90
16823;DHT22;8528;49.976;11.858;2023-12-20T08:38:23;3.30;99.90
16823;DHT22;8528;49.976;11.858;2023-12-20T08:40:50;3.60;99.90
16823;DHT22;8528;49.976;11.858;2023-12-20T08:43:17;3.80;99.90
16823;DHT22;8528;49.976;11.858;2023-12-20T08:45:44;4.30;99.90
16823;DHT22;8528;49.976;11.858;2023-12-20T08:48:13;4.80;99.90
16823;DHT22;8528;49.976;11.858;2023-12-20T08:50:40;4.90;99.90
16823;DHT22;8528;49.976;11.858;2023-12-20T08:53:08;4.90;99.90
16823;DHT22;8528;49.976;11.858;2023-12-20T08:55:34;4.90;99.90
16823;DHT22;8528;49.976;11.858;2023-12-20T08:58:01;4.70;99.90
16823;DHT22;8528;49.976;11.858;2023-12-20T09:00:28;4.40;99.90
16823;DHT22;8528;49.976;11.858;2023-12-20T09:02:56;4.40;99.90
16823;DHT22;8528;49.976;11.858;2023-12-20T09:05:24;4.50;99.90
16823;DHT22;8528;49.976;11.858;2023-12-20T09:07:51;4.60;99.90
16823;DHT22;8528;49.976;11.858;2023-12-20T09:10:18;4.60;99.90
16823;DHT22;8528;49.976;11.858;2023-12-20T09:12:53;4.60;99.90
16823;DHT22;8528;49.976;11.858;2023-12-20T09:15:24;4.50;99.90
16823;DHT22;8528;49.976;11.858;2023-12-20T09:17:53;4.40;99.90
16823;DHT22;8528;49.976;11.858;2023-12-20T09:20:20;4.30;99.90
16823;DHT22;8528;49.976;11.858;2023-12-20T09:22:47;4.30;99.90
16823;DHT22;8528;49.976;11.858;2023-12-20T09:25:16;4.20;99.90
16823;DHT22;8528;49.976;11.858;2023-12-20T09:27:44;4.00;99.90
16823;DHT22;8528;49.976;11.858;2023-12-20T09:30:13;3.90;99.90
16823;DHT22;8528;49.976;11.858;2023-12-20T09:32:53;3.80;99.90
16823;DHT22;8528;49.976;11.858;2023-12-20T09:35:21;3.80;99.90
16823;DHT22;8528;49.976;11.858;2023-12-20T09:37:49;3.80;99.90
16823;DHT22;8528;49.976;11.858;2023-12-20T09:40:19;3.80;99.90
16823;DHT22;8528;49.976;11.858;2023-12-20T09:43:03;3.70;99.90
16823;DHT22;8528;49.976;11.858;2023-12-20T09:45:31;3.60;99.90
16823;DHT22;8528;49.976;11.858;2023-12-20T09:47:59;3.50;99.90
16823;DHT22;8528;49.976;11.858;2023-12-20T09:50:26;3.50;99.90
16823;DHT22;8528;49.976;11.858;2023-12-20T09:52:55;3.40;99.90
16823;DHT22;8528;49.976;11.858;2023-12-20T09:55:27;3.40;99.90
16823;DHT22;8528;49.976;11.858;2023-12-20T09:57:55;3.40;99.90
16823;DHT22;8528;49.976;11.858;2023-12-20T10:00:22;3.50;99.90
16823;DHT22;8528;49.976;11.858;2023-12-20T10:03:09;3.50;99.90
16823;DHT22;8528;49.976;11.858;2023-12-20T10:05:39;3.60;99.90
16823;DHT22;8528;49.976;11.858;2023-12-20T10:08:10;3.60;99.90
16823;DHT22;8528;49.976;11.858;2023-12-20T10:10:36;3.60;99.90
16823;DHT22;8528;49.976;11.858;2023-12-20T10:13:15;3.50;99.90
16823;DHT22;8528;49.976;11.858;2023-12-20T10:15:43;3.50;99.90
16823;DHT22;8528;49.976;11.858;2023-12-20T10:18:12;3.50;99.90
16823;DHT22;8528;49.976;11.858;2023-12-20T10:20:40;3.40;99.90
16823;DHT22;8528;49.976;11.858;2023-12-20T10:23:09;3.40;99.90
16823;DHT22;8528;49.976;11.858;2023-12-20T10:25:36;3.40;99.90
16823;DHT22;8528;49.976;11.858;2023-12-20T10:28:16;3.50;99.90
16823;DHT22;8528;49.976;11.858;2023-12-20T10:30:50;3.60;99.90
16823;DHT22;8528;49.976;11.858;2023-12-20T10:33:25;3.70;99.90
16823;DHT22;8528;49.976;11.858;2023-12-20T10:35:54;3.70;99.90
16823;DHT22;8528;49.976;11.858;2023-12-20T10:38:21;3.70;99.90
16823;DHT22;8528;49.976;11.858;2023-12-20T10:40:49;3.80;99.90
16823;DHT22;8528;49.976;11.858;2023-12-20T10:43:17;3.80;99.90
16823;DHT22;8528;49.976;11.858;2023-12-20T10:45:44;3.80;99.90
16823;DHT22;8528;49.976;11.858;2023-12-20T10:48:11;3.70;99.90
16823;DHT22;8528;49.976;11.858;2023-12-20T10:50:43;3.70;99.90
16823;DHT22;8528;49.976;11.858;2023-12-20T10:53:12;3.70;99.90
16823;DHT22;8528;49.976;11.858;2023-12-20T10:55:39;3.70;99.90
16823;DHT22;8528;49.976;11.858;2023-12-20T10:58:08;3.80;99.90
16823;DHT22;8528;49.976;11.858;2023-12-20T11:00:43;4.00;99.90
16823;DHT22;8528;49.976;11.858;2023-12-20T11:03:13;4.00;99.90
16823;DHT22;8528;49.976;11.858;2023-12-20T11:08:58;3.90;99.90
16823;DHT22;8528;49.976;11.858;2023-12-20T11:11:43;3.90;99.90
16823;DHT22;8528;49.976;11.858;2023-12-20T11:14:57;3.90;99.90
16823;DHT22;8528;49.976;11.858;2023-12-20T11:17:29;3.90;99.90
16823;DHT22;8528;49.976;11.858;2023-12-20T11:22:28;3.80;99.90
16823;DHT22;8528;49.976;11.858;2023-12-20T11:25:05;3.70;99.90
16823;DHT22;8528;49.976;11.858;2023-12-20T11:27:41;3.70;99.90
16823;DHT22;8528;49.976;11.858;2023-12-20T11:30:14;3.70;99.90
16823;DHT22;8528;49.976;11.858;2023-12-20T11:32:42;3.60;99.90
16823;DHT22;8528;49.976;11.858;2023-12-20T11:37:38;3.60;99.90
16823;DHT22;8528;49.976;11.858;2023-12-20T11:40:06;3.60;99.90
16823;DHT22;8528;49.976;11.858;2023-12-20T11:42:44;3.60;99.90
16823;DHT22;8528;49.976;11.858;2023-12-20T11:45:17;3.60;99.90
16823;DHT22;8528;49.976;11.858;2023-12-20T11:47:48;3.60;99.90
16823;DHT22;8528;49.976;11.858;2023-12-20T11:50:21;3.70;99.90
16823;DHT22;8528;49.976;11.858;2023-12-20T11:52:48;3.60;99.90
16823;DHT22;8528;49.976;11.858;2023-12-20T11:55:15;3.60;99.90
16823;DHT22;8528;49.976;11.858;2023-12-20T11:57:43;3.60;99.90
16823;DHT22;8528;49.976;11.858;2023-12-20T12:00:14;3.60;99.90
16823;DHT22;8528;49.976;11.858;2023-12-20T12:02:42;3.60;99.90
16823;DHT22;8528;49.976;11.858;2023-12-20T12:05:13;3.60;99.90
16823;DHT22;8528;49.976;11.858;2023-12-20T12:07:41;3.70;99.90
16823;DHT22;8528;49.976;11.858;2023-12-20T12:10:08;3.60;99.90
16823;DHT22;8528;49.976;11.858;2023-12-20T12:12:35;3.60;99.90
16823;DHT22;8528;49.976;11.858;2023-12-20T12:15:05;3.60;99.90
16823;DHT22;8528;49.976;11.858;2023-12-20T12:17:32;3.50;99.90
16823;DHT22;8528;49.976;11.858;2023-12-20T12:20:03;3.50;99.90
16823;DHT22;8528;49.976;11.858;2023-12-20T12:22:32;3.40;99.90
16823;DHT22;8528;49.976;11.858;2023-12-20T12:25:10;3.40;99.90
16823;DHT22;8528;49.976;11.858;2023-12-20T12:27:40;3.50;99.90
16823;DHT22;8528;49.976;11.858;2023-12-20T12:30:08;3.40;99.90
16823;DHT22;8528;49.976;11.858;2023-12-20T12:32:37;3.40;99.90
16823;DHT22;8528;49.976;11.858;2023-12-20T12:35:05;3.40;99.90
16823;DHT22;8528;49.976;11.858;2023-12-20T12:37:40;3.30;99.90
16823;DHT22;8528;49.976;11.858;2023-12-20T12:40:14;3.20;99.90
16823;DHT22;8528;49.976;11.858;2023-12-20T12:42:43;3.20;99.90
16823;DHT22;8528;49.976;11.858;2023-12-20T12:45:11;3.30;99.90
16823;DHT22;8528;49.976;11.858;2023-12-20T12:47:39;3.30;99.90
16823;DHT22;8528;49.976;11.858;2023-12-20T12:50:06;3.30;99.90
16823;DHT22;8528;49.976;11.858;2023-12-20T12:52:35;3.30;99.90
16823;DHT22;8528;49.976;11.858;2023-12-20T12:55:02;3.30;99.90
16823;DHT22;8528;49.976;11.858;2023-12-20T12:57:31;3.30;99.90
16823;DHT22;8528;49.976;11.858;2023-12-20T12:59:58;3.30;99.90
16823;DHT22;8528;49.976;11.858;2023-12-20T13:02:25;3.30;99.90
16823;DHT22;8528;49.976;11.858;2023-12-20T13:04:53;3.30;99.90
16823;DHT22;8528;49.976;11.858;2023-12-20T13:07:20;3.30;99.90
16823;DHT22;8528;49.976;11.858;2023-12-20T13:09:50;3.30;99.90
16823;DHT22;8528;49.976;11.858;2023-12-20T13:12:17;3.30;99.90
16823;DHT22;8528;49.976;11.858;2023-12-20T13:15:05;3.30;99.90
16823;DHT22;8528;49.976;11.858;2023-12-20T13:17:31;3.30;99.90
16823;DHT22;8528;49.976;11.858;2023-12-20T13:19:59;3.30;99.90
16823;DHT22;8528;49.976;11.858;2023-12-20T13:22:27;3.20;99.90
16823;DHT22;8528;49.976;11.858;2023-12-20T13:24:55;3.20;99.90
16823;DHT22;8528;49.976;11.858;2023-12-20T13:27:21;3.20;99.90
16823;DHT22;8528;49.976;11.858;2023-12-20T13:29:49;3.20;99.90
16823;DHT22;8528;49.976;11.858;2023-12-20T13:32:16;3.20;99.90
16823;DHT22;8528;49.976;11.858;2023-12-20T13:34:43;3.20;99.90
16823;DHT22;8528;49.976;11.858;2023-12-20T13:37:10;3.30;99.90
16823;DHT22;8528;49.976;11.858;2023-12-20T13:39:36;3.30;99.90
16823;DHT22;8528;49.976;11.858;2023-12-20T13:42:06;3.30;99.90
16823;DHT22;8528;49.976;11.858;2023-12-20T13:44:32;3.30;99.90
16823;DHT22;8528;49.976;11.858;2023-12-20T13:46:59;3.30;99.90
16823;DHT22;8528;49.976;11.858;2023-12-20T13:49:26;3.30;99.90
16823;DHT22;8528;49.976;11.858;2023-12-20T13:51:54;3.20;99.90
16823;DHT22;8528;49.976;11.858;2023-12-20T13:54:25;3.30;99.90
16823;DHT22;8528;49.976;11.858;2023-12-20T13:56:54;3.30;99.90
16823;DHT22;8528;49.976;11.858;2023-12-20T13:59:38;3.20;99.90
16823;DHT22;8528;49.976;11.858;2023-12-20T14:02:05;3.30;99.90
16823;DHT22;8528;49.976;11.858;2023-12-20T14:04:32;3.20;99.90
16823;DHT22;8528;49.976;11.858;2023-12-20T14:07:09;3.20;99.90
16823;DHT22;8528;49.976;11.858;2023-12-20T14:09:39;3.20;99.90
16823;DHT22;8528;49.976;11.858;2023-12-20T14:12:12;3.10;99.90
16823;DHT22;8528;49.976;11.858;2023-12-20T14:14:39;3.10;99.90
16823;DHT22;8528;49.976;11.858;2023-12-20T14:17:06;3.10;99.90
16823;DHT22;8528;49.976;11.858;2023-12-20T14:19:33;3.00;99.90
16823;DHT22;8528;49.976;11.858;2023-12-20T14:22:00;3.00;99.90
16823;DHT22;8528;49.976;11.858;2023-12-20T14:24:31;3.00;99.90
16823;DHT22;8528;49.976;11.858;2023-12-20T14:26:57;3.00;99.90
16823;DHT22;8528;49.976;11.858;2023-12-20T14:29:26;3.00;99.90
16823;DHT22;8528;49.976;11.858;2023-12-20T14:31:53;3.00;99.90
16823;DHT22;8528;49.976;11.858;2023-12-20T14:34:21;2.90;99.90
16823;DHT22;8528;49.976;11.858;2023-12-20T14:36:47;2.90;99.90
16823;DHT22;8528;49.976;11.858;2023-12-20T14:39:14;2.90;99.90
16823;DHT22;8528;49.976;11.858;2023-12-20T14:41:42;2.90;99.90
16823;DHT22;8528;49.976;11.858;2023-12-20T14:44:09;2.90;99.90
16823;DHT22;8528;49.976;11.858;2023-12-20T14:46:35;2.90;99.90
16823;DHT22;8528;49.976;11.858;2023-12-20T14:49:06;2.80;99.90
16823;DHT22;8528;49.976;11.858;2023-12-20T14:51:33;2.80;99.90
16823;DHT22;8528;49.976;11.858;2023-12-20T14:54:00;2.90;99.90
16823;DHT22;8528;49.976;11.858;2023-12-20T14:56:27;2.90;99.90
16823;DHT22;8528;49.976;11.858;2023-12-20T14:58:54;2.90;99.90
16823;DHT22;8528;49.976;11.858;2023-12-20T15:01:20;2.80;99.90
16823;DHT22;8528;49.976;11.858;2023-12-20T15:03:48;2.80;99.90
16823;DHT22;8528;49.976;11.858;2023-12-20T15:06:15;2.80;99.90
16823;DHT22;8528;49.976;11.858;2023-12-20T15:08:42;2.80;99.90
16823;DHT22;8528;49.976;11.858;2023-12-20T15:11:09;2.90;99.90
16823;DHT22;8528;49.976;11.858;2023-12-20T15:13:35;2.90;99.90
16823;DHT22;8528;49.976;11.858;2023-12-20T15:16:03;2.90;99.90
16823;DHT22;8528;49.976;11.858;2023-12-20T15:18:30;2.90;99.90
16823;DHT22;8528;49.976;11.858;2023-12-20T15:20:58;2.90;99.90
16823;DHT22;8528;49.976;11.858;2023-12-20T15:23:25;2.90;99.90
16823;DHT22;8528;49.976;11.858;2023-12-20T15:25:52;2.90;99.90
16823;DHT22;8528;49.976;11.858;2023-12-20T15:28:19;3.00;99.90
16823;DHT22;8528;49.976;11.858;2023-12-20T15:30:46;2.90;99.90
16823;DHT22;8528;49.976;11.858;2023-12-20T15:33:14;2.90;99.90
16823;DHT22;8528;49.976;11.858;2023-12-20T15:35:41;2.90;99.90
16823;DHT22;8528;49.976;11.858;2023-12-20T15:38:08;2.90;99.90
16823;DHT22;8528;49.976;11.858;2023-12-20T15:40:35;2.90;99.90
16823;DHT22;8528;49.976;11.858;2023-12-20T15:43:02;2.90;99.90
16823;DHT22;8528;49.976;11.858;2023-12-20T15:45:29;2.90;99.90
16823;DHT22;8528;49.976;11.858;2023-12-20T15:47:56;2.90;99.90
16823;DHT22;8528;49.976;11.858;2023-12-20T15:50:23;2.90;99.90
16823;DHT22;8528;49.976;11.858;2023-12-20T15:52:50;2.90;99.90
16823;DHT22;8528;49.976;11.858;2023-12-20T15:55:17;2.90;99.90
16823;DHT22;8528;49.976;11.858;2023-12-20T15:57:44;2.90;99.90
16823;DHT22;8528;49.976;11.858;2023-12-20T16:00:20;2.90;99.90